createdAt,value
2018-04-28T00:00:34.901Z,0
2018-04-28T00:01:35.572Z,0
2018-04-28T00:02:36.254Z,0
2018-04-28T00:03:36.932Z,0
2018-04-28T00:04:37.597Z,0
2018-04-28T00:05:38.269Z,0
2018-04-28T00:06:38.940Z,0
2018-04-28T00:07:39.610Z,0
2018-04-28T00:08:40.286Z,0
2018-04-28T00:09:40.961Z,0
2018-04-28T00:10:41.627Z,0
2018-04-28T00:11:42.300Z,0
2018-04-28T00:12:42.976Z,0
2018-04-28T00:13:43.646Z,0
2018-04-28T00:14:44.318Z,0
2018-04-28T00:15:44.984Z,0
2018-04-28T00:16:45.656Z,0
2018-04-28T00:17:46.330Z,0
2018-04-28T00:18:47.002Z,0
2018-04-28T00:19:47.671Z,0
2018-04-28T00:20:48.349Z,0
2018-04-28T00:21:49.019Z,0
2018-04-28T00:22:49.690Z,0
2018-04-28T00:23:50.361Z,0
2018-04-28T00:24:51.034Z,0
2018-04-28T00:25:51.705Z,0
2018-04-28T00:26:52.376Z,0
2018-04-28T00:27:53.046Z,0
2018-04-28T00:28:53.716Z,0
2018-04-28T00:29:54.388Z,0
2018-04-28T00:30:55.067Z,0
2018-04-28T00:31:55.736Z,0
2018-04-28T00:32:56.411Z,0
2018-04-28T00:33:57.088Z,0
2018-04-28T00:34:57.759Z,0
2018-04-28T00:35:58.432Z,0
2018-04-28T00:36:59.106Z,0
2018-04-28T00:37:59.785Z,0
2018-04-28T00:39:00.457Z,0
2018-04-28T00:40:01.131Z,0
2018-04-28T00:41:01.802Z,0
2018-04-28T00:42:02.474Z,0
2018-04-28T00:43:03.145Z,0
2018-04-28T00:44:03.825Z,0
2018-04-28T00:45:04.499Z,0
2018-04-28T00:46:05.174Z,0
2018-04-28T00:47:05.844Z,0
2018-04-28T00:48:06.515Z,0
2018-04-28T00:49:07.188Z,0
2018-04-28T00:50:07.866Z,0
2018-04-28T00:51:08.550Z,0
2018-04-28T00:52:09.204Z,0
2018-04-28T00:53:09.876Z,0
2018-04-28T00:54:10.545Z,0
2018-04-28T00:55:11.219Z,0
2018-04-28T00:56:11.890Z,0
2018-04-28T00:57:12.568Z,0
2018-04-28T00:58:13.240Z,0
2018-04-28T00:59:13.913Z,0
2018-04-28T01:00:14.582Z,0
2018-04-28T01:01:15.255Z,0
2018-04-28T01:02:15.932Z,0
2018-04-28T01:03:16.603Z,0
2018-04-28T01:04:17.275Z,0
2018-04-28T01:05:17.949Z,0
2018-04-28T01:06:18.620Z,0
2018-04-28T01:07:19.291Z,0
2018-04-28T01:08:19.968Z,0
2018-04-28T01:09:20.637Z,0
2018-04-28T01:10:21.350Z,0
2018-04-28T01:11:21.978Z,0
2018-04-28T01:12:22.651Z,0
2018-04-28T01:13:23.326Z,0
2018-04-28T01:14:23.998Z,0
2018-04-28T01:15:24.669Z,0
2018-04-28T01:16:25.339Z,0
2018-04-28T01:17:26.013Z,0
2018-04-28T01:18:26.685Z,0
2018-04-28T01:19:27.353Z,0
2018-04-28T01:20:28.029Z,0
2018-04-28T01:21:28.700Z,0
2018-04-28T01:22:29.374Z,0
2018-04-28T01:23:30.044Z,0
2018-04-28T01:24:30.716Z,0
2018-04-28T01:25:31.394Z,0
2018-04-28T01:26:32.058Z,0
2018-04-28T01:27:32.732Z,0
2018-04-28T01:28:33.401Z,0
2018-04-28T01:29:34.072Z,0
2018-04-28T01:30:34.747Z,0
2018-04-28T01:31:35.422Z,0
2018-04-28T01:32:36.093Z,0
2018-04-28T01:33:36.771Z,0
2018-04-28T01:34:37.442Z,0
2018-04-28T01:35:38.118Z,0
2018-04-28T01:36:38.788Z,0
2018-04-28T01:37:39.458Z,0
2018-04-28T01:38:40.138Z,0
2018-04-28T01:39:40.814Z,0
2018-04-28T01:40:41.488Z,0
2018-04-28T01:41:42.156Z,0
2018-04-28T01:42:42.829Z,0
2018-04-28T01:43:43.502Z,0
2018-04-28T01:44:44.176Z,0
2018-04-28T01:45:44.854Z,0
2018-04-28T01:46:45.529Z,0
2018-04-28T01:47:46.200Z,0
2018-04-28T01:48:46.881Z,0
2018-04-28T01:49:47.552Z,0
2018-04-28T01:50:48.223Z,0
2018-04-28T01:51:48.897Z,0
2018-04-28T01:52:49.568Z,0
2018-04-28T01:53:50.241Z,0
2018-04-28T01:54:50.913Z,0
2018-04-28T01:55:51.583Z,0
2018-04-28T01:56:52.257Z,0
2018-04-28T01:57:52.928Z,0
2018-04-28T01:58:53.599Z,0
2018-04-28T01:59:54.274Z,0
2018-04-28T02:00:54.948Z,0
2018-04-28T02:01:55.616Z,0
2018-04-28T02:02:56.289Z,0
2018-04-28T02:03:56.959Z,0
2018-04-28T02:04:57.630Z,0
2018-04-28T02:05:58.306Z,0
2018-04-28T02:06:58.975Z,0
2018-04-28T02:07:59.653Z,0
2018-04-28T02:09:00.326Z,0
2018-04-28T02:10:00.995Z,0
2018-04-28T02:11:01.667Z,0
2018-04-28T02:12:02.341Z,0
2018-04-28T02:13:03.012Z,0
2018-04-28T02:14:03.679Z,0
2018-04-28T02:15:04.350Z,0
2018-04-28T02:16:05.023Z,0
2018-04-28T02:17:05.696Z,0
2018-04-28T02:18:06.363Z,0
2018-04-28T02:19:07.034Z,0
2018-04-28T02:20:07.704Z,0
2018-04-28T02:21:08.378Z,0
2018-04-28T02:22:09.065Z,0
2018-04-28T02:23:09.739Z,0
2018-04-28T02:24:10.412Z,0
2018-04-28T02:25:11.081Z,0
2018-04-28T02:26:11.755Z,0
2018-04-28T02:27:12.431Z,0
2018-04-28T02:28:13.095Z,0
2018-04-28T02:29:13.769Z,0
2018-04-28T02:30:14.440Z,0
2018-04-28T02:31:15.117Z,0
2018-04-28T02:32:15.789Z,0
2018-04-28T02:33:16.460Z,0
2018-04-28T02:34:17.139Z,0
2018-04-28T02:35:17.809Z,0
2018-04-28T02:36:18.482Z,0
2018-04-28T02:37:19.153Z,0
2018-04-28T02:38:19.824Z,0
2018-04-28T02:39:20.492Z,0
2018-04-28T02:40:21.161Z,0
2018-04-28T02:41:21.834Z,0
2018-04-28T02:42:22.505Z,0
2018-04-28T02:43:23.187Z,0
2018-04-28T02:44:23.858Z,0
2018-04-28T02:45:24.532Z,0
2018-04-28T02:46:25.204Z,0
2018-04-28T02:47:25.876Z,0
2018-04-28T02:48:26.555Z,0
2018-04-28T02:49:27.220Z,0
2018-04-28T02:50:27.887Z,0
2018-04-28T02:51:28.561Z,0
2018-04-28T02:52:29.232Z,0
2018-04-28T02:53:29.907Z,0
2018-04-28T02:54:30.582Z,0
2018-04-28T02:55:31.254Z,0
2018-04-28T02:56:31.925Z,0
2018-04-28T02:57:32.604Z,0
2018-04-28T02:58:33.276Z,0
2018-04-28T02:59:33.951Z,0
2018-04-28T03:00:34.625Z,0
2018-04-28T03:01:35.288Z,0
2018-04-28T03:02:35.971Z,0
2018-04-28T03:03:36.660Z,0
2018-04-28T03:04:37.330Z,0
2018-04-28T03:05:38.000Z,0
2018-04-28T03:06:38.680Z,0
2018-04-28T03:07:39.351Z,0
2018-04-28T03:08:40.025Z,0
2018-04-28T03:09:40.696Z,0
2018-04-28T03:10:41.365Z,0
2018-04-28T03:11:42.035Z,0
2018-04-28T03:12:42.711Z,0
2018-04-28T03:13:43.380Z,0
2018-04-28T03:14:44.057Z,0
2018-04-28T03:15:44.729Z,0
2018-04-28T03:16:45.403Z,0
2018-04-28T03:17:46.076Z,0
2018-04-28T03:18:46.753Z,0
2018-04-28T03:19:47.423Z,0
2018-04-28T03:20:48.108Z,0
2018-04-28T03:21:48.774Z,0
2018-04-28T03:22:49.448Z,0
2018-04-28T03:23:50.124Z,0
2018-04-28T03:24:50.796Z,0
2018-04-28T03:25:51.473Z,0
2018-04-28T03:26:52.144Z,0
2018-04-28T03:27:52.815Z,0
2018-04-28T03:28:53.487Z,0
2018-04-28T03:29:54.160Z,0
2018-04-28T03:30:54.831Z,0
2018-04-28T03:31:55.515Z,0
2018-04-28T03:32:56.173Z,0
2018-04-28T03:33:56.852Z,0
2018-04-28T03:34:57.527Z,0
2018-04-28T03:35:58.199Z,0
2018-04-28T03:36:58.863Z,0
2018-04-28T03:37:59.539Z,0
2018-04-28T03:39:00.210Z,0
2018-04-28T03:40:00.881Z,0
2018-04-28T03:41:01.557Z,0
2018-04-28T03:42:02.232Z,0
2018-04-28T03:43:02.900Z,0
2018-04-28T03:44:03.572Z,0
2018-04-28T03:45:04.247Z,0
2018-04-28T03:46:04.921Z,0
2018-04-28T03:47:05.596Z,0
2018-04-28T03:48:06.268Z,0
2018-04-28T03:49:06.943Z,0
2018-04-28T03:50:07.615Z,0
2018-04-28T03:51:08.289Z,0
2018-04-28T03:52:08.959Z,0
2018-04-28T03:53:09.629Z,0
2018-04-28T03:54:10.313Z,0
2018-04-28T03:55:10.985Z,0
2018-04-28T03:56:11.656Z,0
2018-04-28T03:57:12.325Z,0
2018-04-28T03:58:12.996Z,0
2018-04-28T03:59:13.672Z,0
2018-04-28T04:00:14.358Z,0
2018-04-28T04:01:15.029Z,0
2018-04-28T04:02:15.704Z,0
2018-04-28T04:03:16.372Z,0
2018-04-28T04:04:17.043Z,0
2018-04-28T04:05:17.717Z,0
2018-04-28T04:06:18.386Z,5
2018-04-28T04:07:19.058Z,5
2018-04-28T04:08:19.732Z,5
2018-04-28T04:09:20.404Z,5
2018-04-28T04:10:21.079Z,5
2018-04-28T04:11:21.753Z,5
2018-04-28T04:12:22.427Z,5
2018-04-28T04:13:23.104Z,5
2018-04-28T04:14:23.789Z,5
2018-04-28T04:15:24.466Z,10
2018-04-28T04:16:25.137Z,10
2018-04-28T04:17:25.813Z,10
2018-04-28T04:18:26.481Z,10
2018-04-28T04:19:27.165Z,10
2018-04-28T04:20:27.833Z,10
2018-04-28T04:21:28.510Z,10
2018-04-28T04:22:29.187Z,10
2018-04-28T04:23:29.857Z,10
2018-04-28T04:24:30.529Z,15
2018-04-28T04:25:31.210Z,15
2018-04-28T04:26:31.954Z,15
2018-04-28T04:27:32.556Z,15
2018-04-28T04:28:33.236Z,15
2018-04-28T04:29:33.909Z,15
2018-04-28T04:30:34.583Z,15
2018-04-28T04:31:35.255Z,15
2018-04-28T04:32:35.928Z,10
2018-04-28T04:33:36.600Z,10
2018-04-28T04:34:37.270Z,10
2018-04-28T04:35:37.942Z,10
2018-04-28T04:36:38.616Z,10
2018-04-28T04:37:39.301Z,10
2018-04-28T04:38:39.966Z,15
2018-04-28T04:39:40.638Z,15
2018-04-28T04:40:41.314Z,15
2018-04-28T04:41:41.983Z,15
2018-04-28T04:42:42.670Z,15
2018-04-28T04:43:43.342Z,15
2018-04-28T04:44:44.018Z,15
2018-04-28T04:45:44.692Z,15
2018-04-28T04:46:45.366Z,20
2018-04-28T04:47:46.038Z,20
2018-04-28T04:48:46.715Z,25
2018-04-28T04:49:47.399Z,25
2018-04-28T04:50:48.072Z,30
2018-04-28T04:51:48.748Z,30
2018-04-28T04:52:49.434Z,30
2018-04-28T04:53:50.100Z,30
2018-04-28T04:54:50.780Z,30
2018-04-28T04:55:51.453Z,30
2018-04-28T04:56:52.132Z,35
2018-04-28T04:57:52.802Z,35
2018-04-28T04:58:53.484Z,35
2018-04-28T04:59:54.165Z,35
2018-04-28T05:00:54.834Z,35
2018-04-28T05:01:55.507Z,35
2018-04-28T05:02:56.183Z,35
2018-04-28T05:03:56.859Z,40
2018-04-28T05:04:57.532Z,40
2018-04-28T05:05:58.208Z,40
2018-04-28T05:06:58.881Z,40
2018-04-28T05:07:59.556Z,40
2018-04-28T05:09:00.234Z,40
2018-04-28T05:10:00.904Z,40
2018-04-28T05:11:01.580Z,40
2018-04-28T05:12:02.252Z,45
2018-04-28T05:13:02.928Z,45
2018-04-28T05:14:03.605Z,50
2018-04-28T05:15:04.279Z,55
2018-04-28T05:16:04.954Z,60
2018-04-28T05:17:05.631Z,65
2018-04-28T05:18:06.304Z,65
2018-04-28T05:19:07.064Z,65
2018-04-28T05:20:07.665Z,65
2018-04-28T05:21:08.338Z,70
2018-04-28T05:22:09.013Z,70
2018-04-28T05:23:09.691Z,70
2018-04-28T05:24:10.366Z,70
2018-04-28T05:25:11.040Z,70
2018-04-28T05:26:11.714Z,75
2018-04-28T05:27:12.393Z,70
2018-04-28T05:28:13.081Z,75
2018-04-28T05:29:13.755Z,75
2018-04-28T05:30:14.430Z,75
2018-04-28T05:31:15.102Z,75
2018-04-28T05:32:15.782Z,80
2018-04-28T05:33:16.458Z,80
2018-04-28T05:34:17.137Z,80
2018-04-28T05:35:17.812Z,85
2018-04-28T05:36:18.488Z,85
2018-04-28T05:37:19.165Z,90
2018-04-28T05:38:19.855Z,90
2018-04-28T05:39:20.519Z,90
2018-04-28T05:40:21.197Z,95
2018-04-28T05:41:21.881Z,95
2018-04-28T05:42:22.556Z,95
2018-04-28T05:43:23.231Z,95
2018-04-28T05:44:23.906Z,100
2018-04-28T05:45:24.581Z,105
2018-04-28T05:46:25.270Z,100
2018-04-28T05:47:25.943Z,100
2018-04-28T05:48:26.633Z,95
2018-04-28T05:49:27.293Z,95
2018-04-28T05:50:27.970Z,95
2018-04-28T05:51:28.647Z,95
2018-04-28T05:52:29.324Z,100
2018-04-28T05:53:30.007Z,100
2018-04-28T05:54:30.682Z,95
2018-04-28T05:55:31.357Z,95
2018-04-28T05:56:32.036Z,95
2018-04-28T05:57:32.710Z,95
2018-04-28T05:58:33.386Z,100
2018-04-28T05:59:34.064Z,100
2018-04-28T06:00:34.739Z,105
2018-04-28T06:01:35.416Z,110
2018-04-28T06:02:36.092Z,110
2018-04-28T06:03:36.772Z,115
2018-04-28T06:04:37.453Z,115
2018-04-28T06:05:38.137Z,120
2018-04-28T06:06:38.809Z,120
2018-04-28T06:07:39.490Z,125
2018-04-28T06:08:40.176Z,130
2018-04-28T06:09:40.851Z,120
2018-04-28T06:10:41.529Z,120
2018-04-28T06:11:42.213Z,115
2018-04-28T06:12:42.887Z,120
2018-04-28T06:13:43.564Z,110
2018-04-28T06:14:44.244Z,105
2018-04-28T06:15:44.924Z,105
2018-04-28T06:16:45.602Z,105
2018-04-28T06:17:46.279Z,105
2018-04-28T06:18:46.956Z,110
2018-04-28T06:19:47.665Z,110
2018-04-28T06:20:48.313Z,105
2018-04-28T06:21:48.991Z,105
2018-04-28T06:22:49.669Z,105
2018-04-28T06:23:50.355Z,100
2018-04-28T06:24:51.032Z,100
2018-04-28T06:25:51.760Z,100
2018-04-28T06:26:52.385Z,100
2018-04-28T06:27:53.065Z,95
2018-04-28T06:28:53.743Z,90
2018-04-28T06:29:54.421Z,85
2018-04-28T06:30:55.107Z,80
2018-04-28T06:31:55.787Z,80
2018-04-28T06:32:56.460Z,85
2018-04-28T06:33:57.137Z,90
2018-04-28T06:34:57.814Z,100
2018-04-28T06:35:58.505Z,105
2018-04-28T06:36:59.185Z,105
2018-04-28T06:37:59.868Z,110
2018-04-28T06:39:00.549Z,105
2018-04-28T06:40:01.230Z,105
2018-04-28T06:41:01.905Z,105
2018-04-28T06:42:02.585Z,110
2018-04-28T06:43:03.259Z,115
2018-04-28T06:44:03.943Z,120
2018-04-28T06:45:04.618Z,125
2018-04-28T06:46:05.302Z,125
2018-04-28T06:47:05.981Z,125
2018-04-28T06:48:06.658Z,125
2018-04-28T06:49:07.331Z,120
2018-04-28T06:50:08.012Z,115
2018-04-28T06:51:08.695Z,115
2018-04-28T06:52:09.362Z,120
2018-04-28T06:53:10.047Z,110
2018-04-28T06:54:10.727Z,110
2018-04-28T06:55:11.403Z,105
2018-04-28T06:56:12.078Z,105
2018-04-28T06:57:12.765Z,105
2018-04-28T06:58:13.439Z,110
2018-04-28T06:59:14.115Z,115
2018-04-28T07:00:14.794Z,120
2018-04-28T07:01:15.467Z,125
2018-04-28T07:02:16.164Z,125
2018-04-28T07:03:16.833Z,130
2018-04-28T07:04:17.525Z,135
2018-04-28T07:05:18.207Z,140
2018-04-28T07:06:18.890Z,145
2018-04-28T07:07:19.573Z,150
2018-04-28T07:08:20.249Z,150
2018-04-28T07:09:20.929Z,155
2018-04-28T07:10:21.611Z,155
2018-04-28T07:11:22.289Z,160
2018-04-28T07:12:22.973Z,160
2018-04-28T07:13:23.656Z,165
2018-04-28T07:14:24.335Z,165
2018-04-28T07:15:25.011Z,170
2018-04-28T07:16:25.701Z,170
2018-04-28T07:17:26.381Z,165
2018-04-28T07:18:27.060Z,170
2018-04-28T07:19:27.741Z,170
2018-04-28T07:20:28.418Z,175
2018-04-28T07:21:29.100Z,175
2018-04-28T07:22:29.781Z,180
2018-04-28T07:23:30.464Z,180
2018-04-28T07:24:31.156Z,185
2018-04-28T07:25:31.836Z,190
2018-04-28T07:26:32.520Z,195
2018-04-28T07:27:33.200Z,195
2018-04-28T07:28:33.877Z,195
2018-04-28T07:29:34.562Z,200
2018-04-28T07:30:35.238Z,205
2018-04-28T07:31:35.921Z,205
2018-04-28T07:32:36.598Z,205
2018-04-28T07:33:37.285Z,200
2018-04-28T07:34:37.965Z,200
2018-04-28T07:35:38.650Z,200
2018-04-28T07:36:39.329Z,200
2018-04-28T07:37:40.008Z,205
2018-04-28T07:38:40.699Z,205
2018-04-28T07:39:41.368Z,210
2018-04-28T07:40:42.046Z,210
2018-04-28T07:41:42.722Z,215
2018-04-28T07:42:43.402Z,220
2018-04-28T07:43:44.088Z,220
2018-04-28T07:44:44.768Z,220
2018-04-28T07:45:45.449Z,215
2018-04-28T07:46:46.136Z,210
2018-04-28T07:47:46.814Z,220
2018-04-28T07:48:47.492Z,215
2018-04-28T07:49:48.169Z,215
2018-04-28T07:50:48.848Z,230
2018-04-28T07:51:49.544Z,225
2018-04-28T07:52:50.224Z,235
2018-04-28T07:53:50.911Z,240
2018-04-28T07:54:51.588Z,245
2018-04-28T07:55:52.279Z,245
2018-04-28T07:56:52.958Z,220
2018-04-28T07:57:53.643Z,215
2018-04-28T07:58:54.320Z,210
2018-04-28T07:59:54.998Z,200
2018-04-28T08:00:55.682Z,205
2018-04-28T08:01:56.369Z,230
2018-04-28T08:02:57.049Z,240
2018-04-28T08:03:57.732Z,245
2018-04-28T08:04:58.418Z,250
2018-04-28T08:05:59.094Z,250
2018-04-28T08:06:59.856Z,250
2018-04-28T08:08:00.457Z,250
2018-04-28T08:09:01.155Z,250
2018-04-28T08:10:01.832Z,250
2018-04-28T08:11:02.524Z,245
2018-04-28T08:12:03.205Z,240
2018-04-28T08:13:03.889Z,235
2018-04-28T08:14:04.570Z,235
2018-04-28T08:15:05.257Z,235
2018-04-28T08:16:05.939Z,235
2018-04-28T08:17:06.626Z,235
2018-04-28T08:18:07.313Z,245
2018-04-28T08:19:07.993Z,245
2018-04-28T08:20:08.683Z,255
2018-04-28T08:21:09.359Z,250
2018-04-28T08:22:10.044Z,255
2018-04-28T08:23:10.719Z,260
2018-04-28T08:24:11.398Z,275
2018-04-28T08:25:12.081Z,285
2018-04-28T08:26:12.765Z,295
2018-04-28T08:27:13.444Z,305
2018-04-28T08:28:14.123Z,310
2018-04-28T08:29:14.819Z,320
2018-04-28T08:30:15.500Z,315
2018-04-28T08:31:16.186Z,325
2018-04-28T08:32:16.875Z,325
2018-04-28T08:33:17.557Z,320
2018-04-28T08:34:18.237Z,320
2018-04-28T08:35:18.923Z,310
2018-04-28T08:36:19.673Z,295
2018-04-28T08:37:20.317Z,285
2018-04-28T08:38:20.977Z,260
2018-04-28T08:39:21.661Z,255
2018-04-28T08:40:22.346Z,250
2018-04-28T08:41:23.033Z,235
2018-04-28T08:42:23.721Z,235
2018-04-28T08:43:24.399Z,225
2018-04-28T08:44:25.083Z,220
2018-04-28T08:45:25.841Z,225
2018-04-28T08:46:26.444Z,235
2018-04-28T08:47:27.126Z,245
2018-04-28T08:48:27.807Z,255
2018-04-28T08:49:28.561Z,260
2018-04-28T08:50:29.176Z,260
2018-04-28T08:51:29.868Z,265
2018-04-28T08:52:30.552Z,270
2018-04-28T08:53:31.234Z,260
2018-04-28T08:54:31.917Z,245
2018-04-28T08:55:32.608Z,235
2018-04-28T08:56:33.378Z,240
2018-04-28T08:57:33.973Z,235
2018-04-28T08:58:34.658Z,225
2018-04-28T08:59:35.338Z,225
2018-04-28T09:00:36.025Z,220
2018-04-28T09:01:36.702Z,215
2018-04-28T09:02:37.387Z,220
2018-04-28T09:03:38.139Z,215
2018-04-28T09:04:38.751Z,215
2018-04-28T09:05:39.428Z,215
2018-04-28T09:06:40.125Z,215
2018-04-28T09:07:40.802Z,220
2018-04-28T09:08:41.492Z,220
2018-04-28T09:09:42.173Z,215
2018-04-28T09:10:42.852Z,215
2018-04-28T09:11:43.539Z,215
2018-04-28T09:12:44.227Z,210
2018-04-28T09:13:44.915Z,205
2018-04-28T09:14:45.595Z,205
2018-04-28T09:15:46.276Z,205
2018-04-28T09:16:46.961Z,200
2018-04-28T09:17:47.640Z,195
2018-04-28T09:18:48.328Z,195
2018-04-28T09:19:49.010Z,195
2018-04-28T09:20:49.695Z,195
2018-04-28T09:21:50.381Z,195
2018-04-28T09:22:51.073Z,195
2018-04-28T09:23:51.751Z,195
2018-04-28T09:24:52.433Z,200
2018-04-28T09:25:53.117Z,205
2018-04-28T09:26:53.797Z,210
2018-04-28T09:27:54.479Z,210
2018-04-28T09:28:55.175Z,215
2018-04-28T09:29:55.854Z,215
2018-04-28T09:30:56.535Z,215
2018-04-28T09:31:57.228Z,220
2018-04-28T09:32:57.929Z,220
2018-04-28T09:33:58.529Z,230
2018-04-28T09:34:59.263Z,230
2018-04-28T09:35:59.952Z,235
2018-04-28T09:37:00.631Z,240
2018-04-28T09:38:01.316Z,245
2018-04-28T09:39:02.005Z,245
2018-04-28T09:40:02.785Z,250
2018-04-28T09:41:03.384Z,240
2018-04-28T09:42:04.068Z,235
2018-04-28T09:43:04.750Z,235
2018-04-28T09:44:05.431Z,230
2018-04-28T09:45:06.113Z,225
2018-04-28T09:46:06.796Z,220
2018-04-28T09:47:07.476Z,215
2018-04-28T09:48:08.154Z,220
2018-04-28T09:49:08.843Z,220
2018-04-28T09:50:09.528Z,220
2018-04-28T09:51:10.217Z,220
2018-04-28T09:52:10.912Z,225
2018-04-28T09:53:11.589Z,225
2018-04-28T09:54:12.278Z,230
2018-04-28T09:55:12.965Z,235
2018-04-28T09:56:13.652Z,240
2018-04-28T09:57:14.332Z,245
2018-04-28T09:58:15.012Z,250
2018-04-28T09:59:15.690Z,255
2018-04-28T10:00:16.371Z,260
2018-04-28T10:01:17.052Z,265
2018-04-28T10:02:17.734Z,265
2018-04-28T10:03:18.420Z,270
2018-04-28T10:04:19.106Z,270
2018-04-28T10:05:19.784Z,270
2018-04-28T10:06:20.467Z,270
2018-04-28T10:07:21.149Z,265
2018-04-28T10:08:21.824Z,265
2018-04-28T10:09:22.586Z,265
2018-04-28T10:10:23.191Z,260
2018-04-28T10:11:23.872Z,255
2018-04-28T10:12:24.562Z,250
2018-04-28T10:13:25.963Z,260
2018-04-28T10:14:26.665Z,270
2018-04-28T10:15:27.356Z,270
2018-04-28T10:16:28.042Z,275
2018-04-28T10:17:28.736Z,275
2018-04-28T10:18:29.419Z,275
2018-04-28T10:19:30.112Z,265
2018-04-28T10:20:30.790Z,265
2018-04-28T10:21:31.474Z,270
2018-04-28T10:22:32.158Z,255
2018-04-28T10:23:32.838Z,260
2018-04-28T10:24:33.521Z,260
2018-04-28T10:25:34.200Z,260
2018-04-28T10:26:34.891Z,265
2018-04-28T10:27:35.589Z,265
2018-04-28T10:28:36.988Z,260
2018-04-28T10:29:37.698Z,255
2018-04-28T10:30:38.381Z,255
2018-04-28T10:31:39.066Z,250
2018-04-28T10:32:39.746Z,245
2018-04-28T10:33:41.147Z,240
2018-04-28T10:34:42.307Z,245
2018-04-28T10:35:43.098Z,250
2018-04-28T10:36:43.786Z,250
2018-04-28T10:37:44.463Z,250
2018-04-28T10:38:45.148Z,245
2018-04-28T10:39:45.839Z,245
2018-04-28T10:40:46.528Z,235
2018-04-28T10:41:47.210Z,225
2018-04-28T10:42:47.900Z,230
2018-04-28T10:43:48.577Z,235
2018-04-28T10:44:49.280Z,240
2018-04-28T10:45:49.977Z,235
2018-04-28T10:46:50.664Z,235
2018-04-28T10:47:51.349Z,235
2018-04-28T10:48:52.025Z,240
2018-04-28T10:49:52.716Z,245
2018-04-28T10:50:53.408Z,245
2018-04-28T10:51:54.080Z,250
2018-04-28T10:52:54.773Z,250
2018-04-28T10:53:55.500Z,245
2018-04-28T10:54:56.140Z,245
2018-04-28T10:55:56.828Z,250
2018-04-28T10:56:57.522Z,250
2018-04-28T10:57:58.201Z,250
2018-04-28T10:58:58.888Z,245
2018-04-28T10:59:59.571Z,250
2018-04-28T11:01:00.250Z,245
2018-04-28T11:02:00.933Z,255
2018-04-28T11:03:01.620Z,265
2018-04-28T11:04:02.302Z,275
2018-04-28T11:05:02.988Z,280
2018-04-28T11:06:03.676Z,285
2018-04-28T11:07:04.364Z,295
2018-04-28T11:08:05.049Z,300
2018-04-28T11:09:05.734Z,310
2018-04-28T11:10:06.418Z,325
2018-04-28T11:11:07.100Z,325
2018-04-28T11:12:07.781Z,320
2018-04-28T11:13:08.463Z,325
2018-04-28T11:14:09.146Z,335
2018-04-28T11:15:09.834Z,345
2018-04-28T11:16:10.545Z,340
2018-04-28T11:17:11.229Z,340
2018-04-28T11:18:11.913Z,350
2018-04-28T11:19:12.599Z,370
2018-04-28T11:20:13.279Z,375
2018-04-28T11:21:13.962Z,375
2018-04-28T11:22:14.649Z,385
2018-04-28T11:23:15.330Z,390
2018-04-28T11:24:16.014Z,395
2018-04-28T11:25:16.698Z,385
2018-04-28T11:26:17.380Z,385
2018-04-28T11:27:18.059Z,390
2018-04-28T11:28:18.745Z,405
2018-04-28T11:29:19.428Z,430
2018-04-28T11:30:20.108Z,515
2018-04-28T11:31:20.797Z,1130
2018-04-28T11:32:21.480Z,1950
2018-04-28T11:33:22.165Z,1670
2018-04-28T11:34:22.850Z,2515
2018-04-28T11:35:23.534Z,2460
2018-04-28T11:36:24.217Z,2595
2018-04-28T11:37:24.909Z,2750
2018-04-28T11:38:25.597Z,2675
2018-04-28T11:39:26.279Z,2380
2018-04-28T11:40:26.968Z,2805
2018-04-28T11:41:27.658Z,2725
2018-04-28T11:42:28.342Z,3225
2018-04-28T11:43:29.035Z,3115
2018-04-28T11:44:29.736Z,3060
2018-04-28T11:45:30.424Z,3275
2018-04-28T11:46:31.107Z,3070
2018-04-28T11:47:31.799Z,2995
2018-04-28T11:48:32.492Z,3080
2018-04-28T11:49:33.182Z,3100
2018-04-28T11:50:33.872Z,3200
2018-04-28T11:51:34.558Z,3045
2018-04-28T11:52:35.244Z,2955
2018-04-28T11:53:35.930Z,2450
2018-04-28T11:54:36.612Z,2975
2018-04-28T11:55:37.297Z,3085
2018-04-28T11:56:37.980Z,2995
2018-04-28T11:57:38.678Z,2990
2018-04-28T11:58:39.366Z,2660
2018-04-28T11:59:40.054Z,2390
2018-04-28T12:00:40.744Z,1445
2018-04-28T12:01:41.431Z,1960
2018-04-28T12:02:42.191Z,2080
2018-04-28T12:03:42.798Z,2135
2018-04-28T12:04:43.489Z,1645
2018-04-28T12:05:44.196Z,1540
2018-04-28T12:06:44.880Z,1600
2018-04-28T12:07:45.567Z,1270
2018-04-28T12:08:46.257Z,615
2018-04-28T12:09:46.942Z,490
2018-04-28T12:10:47.626Z,500
2018-04-28T12:11:48.314Z,520
2018-04-28T12:12:48.998Z,580
2018-04-28T12:13:49.692Z,920
2018-04-28T12:14:50.383Z,1100
2018-04-28T12:15:51.082Z,910
2018-04-28T12:16:51.767Z,1020
2018-04-28T12:17:52.455Z,1040
2018-04-28T12:18:53.147Z,980
2018-04-28T12:19:53.821Z,960
2018-04-28T12:20:54.562Z,895
2018-04-28T12:21:55.192Z,790
2018-04-28T12:22:55.890Z,755
2018-04-28T12:23:56.581Z,750
2018-04-28T12:24:57.276Z,680
2018-04-28T12:25:57.967Z,655
2018-04-28T12:26:58.653Z,635
2018-04-28T12:27:59.342Z,620
2018-04-28T12:29:00.030Z,590
2018-04-28T12:30:00.796Z,570
2018-04-28T12:31:01.418Z,560
2018-04-28T12:32:02.111Z,535
2018-04-28T12:33:02.807Z,570
2018-04-28T12:34:03.502Z,580
2018-04-28T12:35:04.188Z,580
2018-04-28T12:36:04.897Z,575
2018-04-28T12:37:05.570Z,575
2018-04-28T12:38:06.267Z,580
2018-04-28T12:39:06.951Z,575
2018-04-28T12:40:07.638Z,565
2018-04-28T12:41:08.333Z,565
2018-04-28T12:42:09.021Z,555
2018-04-28T12:43:09.708Z,550
2018-04-28T12:44:10.395Z,540
2018-04-28T12:45:11.092Z,525
2018-04-28T12:46:11.778Z,525
2018-04-28T12:47:12.465Z,510
2018-04-28T12:48:13.158Z,500
2018-04-28T12:49:13.857Z,490
2018-04-28T12:50:14.550Z,490
2018-04-28T12:51:15.240Z,495
2018-04-28T12:52:15.925Z,505
2018-04-28T12:53:16.613Z,480
2018-04-28T12:54:17.300Z,495
2018-04-28T12:55:17.987Z,510
2018-04-28T12:56:18.676Z,520
2018-04-28T12:57:19.363Z,530
2018-04-28T12:58:20.063Z,505
2018-04-28T12:59:20.749Z,525
2018-04-28T13:00:21.442Z,550
2018-04-28T13:01:22.145Z,555
2018-04-28T13:02:22.884Z,555
2018-04-28T13:03:23.572Z,580
2018-04-28T13:04:24.258Z,570
2018-04-28T13:05:24.950Z,545
2018-04-28T13:06:25.636Z,570
2018-04-28T13:07:26.321Z,590
2018-04-28T13:08:27.006Z,605
2018-04-28T13:09:27.698Z,600
2018-04-28T13:10:28.382Z,630
2018-04-28T13:11:29.070Z,635
2018-04-28T13:12:29.769Z,655
2018-04-28T13:13:30.467Z,635
2018-04-28T13:14:31.161Z,635
2018-04-28T13:15:31.845Z,625
2018-04-28T13:16:32.540Z,645
2018-04-28T13:17:33.239Z,615
2018-04-28T13:18:33.924Z,585
2018-04-28T13:19:34.616Z,575
2018-04-28T13:20:35.305Z,580
2018-04-28T13:21:35.994Z,560
2018-04-28T13:22:36.680Z,560
2018-04-28T13:23:37.365Z,600
2018-04-28T13:24:38.053Z,780
2018-04-28T13:25:38.741Z,1295
2018-04-28T13:26:39.430Z,1565
2018-04-28T13:27:40.118Z,1815
2018-04-28T13:28:40.818Z,1790
2018-04-28T13:29:41.504Z,1770
2018-04-28T13:30:42.192Z,1665
2018-04-28T13:31:42.889Z,1760
2018-04-28T13:32:43.577Z,1570
2018-04-28T13:33:44.306Z,1740
2018-04-28T13:34:45.003Z,2315
2018-04-28T13:35:45.708Z,2235
2018-04-28T13:36:46.410Z,1915
2018-04-28T13:37:47.107Z,1765
2018-04-28T13:38:47.803Z,1700
2018-04-28T13:39:48.491Z,1770
2018-04-28T13:40:49.184Z,2095
2018-04-28T13:41:49.874Z,2290
2018-04-28T13:42:50.569Z,2425
2018-04-28T13:43:51.262Z,2565
2018-04-28T13:44:51.953Z,2415
2018-04-28T13:45:52.653Z,2475
2018-04-28T13:46:53.351Z,2385
2018-04-28T13:47:54.054Z,2565
2018-04-28T13:48:54.745Z,2535
2018-04-28T13:49:55.434Z,2470
2018-04-28T13:50:56.129Z,2655
2018-04-28T13:51:56.822Z,2490
2018-04-28T13:52:57.512Z,2605
2018-04-28T13:53:58.228Z,2490
2018-04-28T13:54:58.920Z,2420
2018-04-28T13:55:59.668Z,2450
2018-04-28T13:57:00.304Z,2310
2018-04-28T13:58:01.000Z,2165
2018-04-28T13:59:01.698Z,2105
2018-04-28T14:00:02.393Z,2195
2018-04-28T14:01:03.087Z,2180
2018-04-28T14:02:03.789Z,2185
2018-04-28T14:03:04.487Z,2170
2018-04-28T14:04:05.179Z,2410
2018-04-28T14:05:05.881Z,2490
2018-04-28T14:06:06.574Z,2615
2018-04-28T14:07:07.266Z,2820
2018-04-28T14:08:07.963Z,2780
2018-04-28T14:09:08.660Z,2690
2018-04-28T14:10:09.354Z,2600
2018-04-28T14:11:10.058Z,2470
2018-04-28T14:12:10.767Z,2365
2018-04-28T14:13:11.460Z,2595